Browning, Illinois
Current Conditions -  °F | °C
As of 8:35 AM on Tuesday 21 Oct 2014 (Local Time) from KIJX Reporting Station
Clear Clear  
Wind Chill: 46°   Ceiling: Unl
Heat Index: 49°   Visibility: 10mi
Dew Point: 44°   Wind: 8mph
Humidity: 82%   Direction: 20°NNE
Pressure: 30.14"   Gusts: NA
Location:  40.13°N, 90.37°W
Report Text: KIJX 211335Z AUTO 02007KT 10SM CLR 10/07 A3014 RMK AO2 T00970068
Loading
Personal Weather Stations






























Interactive Weather Map
Tropical Storm Tracking
New forecast layout! Learn more

10-Day Weather Forecast

Advertisements
Track Severe Weather on mobile